SVMG/PMV METAR and TAF weather

Enter ICAO airport designator
Station Type Date Time Source
SVMG METAR 2020/01/26 01:02 UTC NOAA

SVMG 260102Z AUTO 09008KT NCD 31/23 Q1013


Station Type Date Time Source
SVMG Decoded METAR 2020/01/26 01:02 UTC NOAA

Margarita / Del Carib, Venezuela (SVMG) 10-55N 063-59W
Jan 25, 2020 - 08:02 PM EST / 2020.01.26 0102 UTC
Wind: from the E (090 degrees) at 9 MPH (8 KT):0
Temperature: 87 F (31 C)
Heat index: 93.9 F (34.4 C):1
Dew Point: 73 F (23 C)
Relative Humidity: 62%
Pressure (altimeter): 29.91 in. Hg (1013 hPa)
ob: SVMG 260102Z AUTO 09008KT NCD 31/23 Q1013
cycle: 1

Station Type Date Time Source
SVMG TAF 2020/01/25 18:55 UTC NOAA

TAF SVMG 251600Z 2518/2618 09014KT 9999 FEW010 TX32/19Z TN24/09Z
BECMG 2520/2600 08015KT SCT010 SCT080

Example: see airport list